< < Back
Terminal Aerodrome Forecast


Current Version              Previous Versions:   1  2  3  4  5  6  7  8  9  

Terminal Aerodrome Forecast

945
FTUS44 KMOB 032323
TAFMOB
TAF
KMOB 032323Z 0400/0424 19011KT P6SM FEW027 SCT200
     FM040300 19006KT P6SM FEW200
     FM041500 26005KT P6SM VCSH SCT050 BKN250
     FM041800 22009KT P6SM SCT035 SCT200 PROB30 0418/0424 4SM TSRA
      BKN025CB=



Latest METAR

760
SAUS80 KWBC 041000
MTRMOB
METAR KMOB 040956Z AUTO 19006KT 10SM CLR 26/24 A3004 RMK AO2 SLP167
T02560244


USA.gov is the U.S. government's official web portal to all federal, state and local government web resources and services.